createdAt,value
2022-10-03T00:02:05.318Z,7.54
2022-10-03T00:04:47.263Z,7.56
2022-10-03T00:07:30.663Z,7.48
2022-10-03T00:10:14.307Z,7.56
2022-10-03T00:13:00.459Z,7.56
2022-10-03T00:15:32.394Z,7.40
2022-10-03T00:18:11.454Z,7.27
2022-10-03T00:20:53.181Z,7.38
2022-10-03T00:23:26.780Z,7.40
2022-10-03T00:26:08.770Z,7.29
2022-10-03T00:28:55.205Z,7.24
2022-10-03T00:31:26.458Z,7.16
2022-10-03T00:34:11.790Z,7.22
2022-10-03T00:36:50.018Z,7.18
2022-10-03T00:39:43.017Z,7.10
2022-10-03T00:42:38.364Z,7.08
2022-10-03T00:45:52.416Z,6.96
2022-10-03T00:48:49.467Z,6.89
2022-10-03T00:51:40.264Z,6.83
2022-10-03T00:54:33.043Z,6.82
2022-10-03T00:57:15.607Z,6.84
2022-10-03T01:00:02.088Z,6.91
2022-10-03T01:02:46.086Z,6.95
2022-10-03T01:05:20.823Z,6.86
2022-10-03T01:08:26.853Z,6.89
2022-10-03T01:11:02.840Z,6.65
2022-10-03T01:13:43.151Z,6.70
2022-10-03T01:16:21.242Z,6.62
2022-10-03T01:19:00.608Z,6.60
2022-10-03T01:21:39.810Z,6.55
2022-10-03T01:24:34.064Z,6.57
2022-10-03T01:27:06.010Z,6.55
2022-10-03T01:29:43.623Z,6.50
2022-10-03T01:32:20.301Z,6.40
2022-10-03T01:34:54.952Z,6.37
2022-10-03T01:37:27.533Z,6.41
2022-10-03T01:40:00.052Z,6.41
2022-10-03T01:42:39.347Z,6.44
2022-10-03T01:45:21.759Z,6.41
2022-10-03T01:47:55.588Z,6.40
2022-10-03T01:50:32.359Z,6.30
2022-10-03T01:53:06.961Z,6.27
2022-10-03T01:55:42.310Z,6.16
2022-10-03T01:58:20.580Z,6.15
2022-10-03T02:00:56.246Z,6.17
2022-10-03T02:03:28.818Z,6.19
2022-10-03T02:06:04.735Z,6.12
2022-10-03T02:08:48.208Z,5.99
2022-10-03T02:11:28.451Z,5.85
2022-10-03T02:14:05.256Z,5.93
2022-10-03T02:16:40.472Z,5.81
2022-10-03T02:19:15.670Z,5.92
2022-10-03T02:21:49.124Z,5.87
2022-10-03T02:24:28.988Z,6.00
2022-10-03T02:27:21.464Z,5.90
2022-10-03T02:30:17.964Z,6.07
2022-10-03T02:33:24.732Z,6.05
2022-10-03T02:36:11.933Z,6.09
2022-10-03T02:39:17.980Z,5.99
2022-10-03T02:42:19.540Z,5.90
2022-10-03T02:45:01.825Z,5.93
2022-10-03T02:48:27.034Z,5.94
2022-10-03T02:51:32.438Z,5.98
2022-10-03T02:54:32.284Z,5.93
2022-10-03T02:57:29.465Z,5.94
2022-10-03T03:00:12.168Z,5.93
2022-10-03T03:03:19.493Z,5.87
2022-10-03T03:06:37.410Z,5.85
2022-10-03T03:09:39.975Z,5.71
2022-10-03T03:12:43.266Z,5.63
2022-10-03T03:15:49.482Z,5.63
2022-10-03T03:18:30.113Z,5.76
2022-10-03T03:21:21.452Z,5.81
2022-10-03T03:24:30.500Z,5.89
2022-10-03T03:27:22.994Z,5.87
2022-10-03T03:29:59.291Z,5.90
2022-10-03T03:32:41.056Z,6.08
2022-10-03T03:35:17.436Z,6.02
2022-10-03T03:37:54.279Z,5.90
2022-10-03T03:40:35.137Z,5.76
2022-10-03T03:43:17.357Z,5.68
2022-10-03T03:45:57.825Z,5.68
2022-10-03T03:49:08.707Z,5.68
2022-10-03T03:51:43.239Z,5.66
2022-10-03T03:54:41.079Z,5.80
2022-10-03T03:57:38.464Z,5.84
2022-10-03T04:00:14.502Z,5.85
2022-10-03T04:03:07.082Z,5.70
2022-10-03T04:05:54.376Z,5.72
2022-10-03T04:08:36.063Z,5.61
2022-10-03T04:11:18.717Z,5.55
2022-10-03T04:14:09.639Z,5.45
2022-10-03T04:16:56.186Z,5.59
2022-10-03T04:19:32.748Z,5.40
2022-10-03T04:22:13.806Z,5.42
2022-10-03T04:25:13.284Z,5.40
2022-10-03T04:28:15.329Z,5.35
2022-10-03T04:30:57.150Z,5.39
2022-10-03T04:33:38.799Z,5.41
2022-10-03T04:36:33.959Z,5.40
2022-10-03T04:39:10.747Z,5.42
2022-10-03T04:41:45.797Z,5.30
2022-10-03T04:44:31.014Z,5.38
2022-10-03T04:47:01.948Z,5.41
2022-10-03T04:49:37.840Z,5.32
2022-10-03T04:52:15.821Z,5.40
2022-10-03T04:54:56.302Z,5.29
2022-10-03T04:57:34.443Z,5.33
2022-10-03T05:00:14.982Z,5.32
2022-10-03T05:02:49.091Z,5.33
2022-10-03T05:05:28.128Z,5.23
2022-10-03T05:08:04.934Z,5.32
2022-10-03T05:10:49.434Z,5.27
2022-10-03T05:13:22.602Z,5.24
2022-10-03T05:16:00.321Z,5.26
2022-10-03T05:18:33.978Z,4.97
2022-10-03T05:21:09.255Z,5.00
2022-10-03T05:23:47.522Z,4.96
2022-10-03T05:26:44.217Z,4.94
2022-10-03T05:29:18.588Z,4.87
2022-10-03T05:31:55.802Z,4.84
2022-10-03T05:34:34.107Z,4.84
2022-10-03T05:37:25.739Z,4.79
2022-10-03T05:39:59.845Z,4.87
2022-10-03T05:42:49.245Z,5.03
2022-10-03T05:45:26.289Z,5.13
2022-10-03T05:48:02.661Z,5.06
2022-10-03T05:50:52.463Z,5.04
2022-10-03T05:53:50.806Z,5.23
2022-10-03T05:56:31.866Z,5.21
2022-10-03T05:59:39.089Z,5.06
2022-10-03T06:02:49.929Z,5.15
2022-10-03T06:05:29.857Z,5.37
2022-10-03T06:08:40.671Z,5.48
2022-10-03T06:11:21.705Z,5.49
2022-10-03T06:14:18.699Z,5.56
2022-10-03T06:16:55.459Z,5.57
2022-10-03T06:19:36.087Z,5.40
2022-10-03T06:22:36.431Z,5.33
2022-10-03T06:25:30.947Z,5.38
2022-10-03T06:28:38.883Z,5.39
2022-10-03T06:31:45.268Z,5.41
2022-10-03T06:34:39.058Z,5.77
2022-10-03T06:37:38.748Z,6.01
2022-10-03T06:40:45.478Z,6.21
2022-10-03T06:43:49.950Z,6.40
2022-10-03T06:46:37.331Z,6.73
2022-10-03T06:49:56.451Z,7.14
2022-10-03T06:52:57.316Z,7.55
2022-10-03T06:55:53.626Z,7.83
2022-10-03T06:59:00.020Z,8.17
2022-10-03T07:05:19.361Z,8.96
2022-10-03T07:08:13.850Z,9.31
2022-10-03T07:10:57.448Z,9.78
2022-10-03T07:13:49.517Z,10.07
2022-10-03T07:16:41.723Z,10.26
2022-10-03T07:19:33.716Z,10.56
2022-10-03T07:22:35.115Z,10.93
2022-10-03T07:25:27.995Z,11.14
2022-10-03T07:28:24.090Z,11.39
2022-10-03T07:31:02.557Z,11.55
2022-10-03T07:33:50.731Z,11.86
2022-10-03T07:36:32.134Z,12.16
2022-10-03T07:39:17.990Z,12.37
2022-10-03T07:42:25.530Z,12.58
2022-10-03T07:45:11.956Z,12.78
2022-10-03T07:48:22.956Z,12.91
2022-10-03T07:50:57.515Z,13.22
2022-10-03T07:53:58.140Z,13.40
2022-10-03T07:56:46.347Z,13.61
2022-10-03T08:00:00.421Z,13.77
2022-10-03T08:02:54.379Z,13.94
2022-10-03T08:05:37.942Z,14.16
2022-10-03T08:08:26.788Z,14.05
2022-10-03T08:11:43.538Z,14.30
2022-10-03T08:14:19.239Z,14.50
2022-10-03T08:17:13.822Z,14.63
2022-10-03T08:20:26.781Z,14.72
2022-10-03T08:23:07.733Z,14.86
2022-10-03T08:26:06.245Z,14.97
2022-10-03T08:29:00.121Z,15.11
2022-10-03T08:31:53.840Z,14.97
2022-10-03T08:34:50.536Z,15.16
2022-10-03T08:37:40.913Z,15.36
2022-10-03T08:40:49.719Z,15.41
2022-10-03T08:43:58.546Z,15.37
2022-10-03T08:46:56.750Z,15.62
2022-10-03T08:49:48.782Z,15.67
2022-10-03T08:52:29.575Z,15.80
2022-10-03T08:55:16.608Z,15.98
2022-10-03T08:58:20.938Z,16.10
2022-10-03T09:01:11.896Z,15.92
2022-10-03T09:04:19.148Z,16.10
2022-10-03T09:07:17.205Z,16.19
2022-10-03T09:10:17.063Z,16.23
2022-10-03T09:13:15.087Z,16.21
2022-10-03T09:16:18.782Z,16.27
2022-10-03T09:19:05.933Z,16.40
2022-10-03T09:21:49.154Z,16.49
2022-10-03T09:24:54.468Z,16.66
2022-10-03T09:27:37.083Z,16.85
2022-10-03T09:30:23.877Z,17.04
2022-10-03T09:33:33.141Z,17.05
2022-10-03T09:36:11.422Z,17.10
2022-10-03T09:39:03.598Z,17.18
2022-10-03T09:41:45.888Z,17.14
2022-10-03T09:44:39.979Z,17.11
2022-10-03T09:47:51.702Z,17.22
2022-10-03T09:50:56.546Z,17.28
2022-10-03T09:54:06.145Z,17.33
2022-10-03T09:57:03.251Z,17.31
2022-10-03T09:59:51.210Z,17.32
2022-10-03T10:02:46.770Z,17.37
2022-10-03T10:05:44.202Z,17.59
2022-10-03T10:08:43.610Z,17.78
2022-10-03T10:11:24.935Z,17.87
2022-10-03T10:14:28.985Z,17.34
2022-10-03T10:17:43.823Z,17.69
2022-10-03T10:20:59.043Z,17.36
2022-10-03T10:23:40.708Z,17.73
2022-10-03T10:26:56.403Z,17.55
2022-10-03T10:29:36.916Z,17.80
2022-10-03T10:32:42.431Z,17.71
2022-10-03T10:35:50.379Z,17.88
2022-10-03T10:38:30.654Z,17.94
2022-10-03T10:41:33.574Z,18.11
2022-10-03T10:44:50.630Z,18.25
2022-10-03T10:47:55.872Z,17.67
2022-10-03T10:50:59.229Z,17.42
2022-10-03T10:54:03.445Z,17.46
2022-10-03T10:57:03.929Z,16.98
2022-10-03T11:00:06.129Z,16.99
2022-10-03T11:03:34.357Z,17.29
2022-10-03T11:06:41.080Z,17.62
2022-10-03T11:09:41.481Z,17.81
2022-10-03T11:12:42.952Z,18.28
2022-10-03T11:15:50.141Z,18.47
2022-10-03T11:18:50.945Z,18.49
2022-10-03T11:22:08.975Z,18.62
2022-10-03T11:25:24.577Z,18.75
2022-10-03T11:28:26.358Z,18.68
2022-10-03T11:31:30.891Z,18.83
2022-10-03T11:34:31.936Z,18.46
2022-10-03T11:37:18.378Z,18.67
2022-10-03T11:39:51.485Z,18.45
2022-10-03T11:42:26.860Z,18.08
2022-10-03T11:45:00.843Z,17.90
2022-10-03T11:47:52.524Z,17.70
2022-10-03T11:50:38.955Z,17.41
2022-10-03T11:53:45.096Z,17.03
2022-10-03T11:56:20.309Z,17.40
2022-10-03T11:59:22.710Z,17.41
2022-10-03T12:02:09.388Z,17.69
2022-10-03T12:04:50.456Z,17.95
2022-10-03T12:07:33.002Z,18.16
2022-10-03T12:10:09.340Z,18.29
2022-10-03T12:12:42.422Z,18.44
2022-10-03T12:15:25.510Z,17.98
2022-10-03T12:18:05.689Z,18.29
2022-10-03T12:20:44.401Z,18.30
2022-10-03T12:23:31.040Z,18.14
2022-10-03T12:26:02.054Z,18.07
2022-10-03T12:28:37.901Z,17.89
2022-10-03T12:31:18.774Z,17.97
2022-10-03T12:33:53.329Z,18.23
2022-10-03T12:36:28.430Z,18.41
2022-10-03T12:39:18.888Z,18.10
2022-10-03T12:41:59.628Z,17.91
2022-10-03T12:44:41.806Z,17.93
2022-10-03T12:47:55.418Z,17.93
2022-10-03T12:50:37.798Z,18.20
2022-10-03T12:53:22.528Z,18.31
2022-10-03T12:56:03.297Z,18.30
2022-10-03T12:58:40.743Z,18.18
2022-10-03T13:01:17.582Z,17.58
2022-10-03T13:03:51.621Z,17.68
2022-10-03T13:07:05.050Z,17.93
2022-10-03T13:09:54.902Z,17.77
2022-10-03T13:12:41.166Z,17.59
2022-10-03T13:15:37.952Z,17.54
2022-10-03T13:18:16.652Z,17.49
2022-10-03T13:20:53.781Z,17.64
2022-10-03T13:23:28.801Z,17.39
2022-10-03T13:26:11.072Z,17.60
2022-10-03T13:28:56.713Z,17.66
2022-10-03T13:31:29.540Z,17.62
2022-10-03T13:34:02.040Z,17.50
2022-10-03T13:36:36.210Z,17.56
2022-10-03T13:39:15.887Z,17.54
2022-10-03T13:41:58.632Z,17.33
2022-10-03T13:44:36.347Z,17.49
2022-10-03T13:47:16.696Z,17.55
2022-10-03T13:49:52.368Z,17.55
2022-10-03T13:52:30.638Z,17.55
2022-10-03T13:55:13.451Z,17.42
2022-10-03T13:57:47.856Z,17.45
2022-10-03T14:00:16.966Z,17.38
2022-10-03T14:03:19.463Z,17.36
2022-10-03T14:06:10.876Z,17.37
2022-10-03T14:08:58.271Z,17.24
2022-10-03T14:11:38.796Z,17.25
2022-10-03T14:14:29.140Z,17.06
2022-10-03T14:17:03.663Z,17.02
2022-10-03T14:19:39.353Z,16.56
2022-10-03T14:22:27.499Z,16.63
2022-10-03T14:25:05.460Z,16.54
2022-10-03T14:27:47.083Z,16.60
2022-10-03T14:30:18.365Z,16.59
2022-10-03T14:33:05.540Z,16.55
2022-10-03T14:35:42.890Z,16.51
2022-10-03T14:38:19.496Z,16.40
2022-10-03T14:40:50.021Z,16.04
2022-10-03T14:43:31.118Z,15.99
2022-10-03T14:46:01.858Z,15.54
2022-10-03T14:48:31.642Z,15.62
2022-10-03T14:51:08.919Z,15.66
2022-10-03T14:53:37.455Z,15.42
2022-10-03T14:56:08.489Z,15.25
2022-10-03T14:58:44.132Z,15.17
2022-10-03T15:01:14.682Z,15.15
2022-10-03T15:03:46.171Z,15.14
2022-10-03T15:06:30.693Z,15.00
2022-10-03T15:08:58.226Z,15.14
2022-10-03T15:11:29.091Z,15.18
2022-10-03T15:13:59.339Z,15.21
2022-10-03T15:16:27.943Z,15.17
2022-10-03T15:19:00.300Z,15.02
2022-10-03T15:21:30.170Z,14.84
2022-10-03T15:24:01.956Z,14.82
2022-10-03T15:26:34.014Z,14.77
2022-10-03T15:29:05.471Z,14.65
2022-10-03T15:31:37.954Z,14.46
2022-10-03T15:34:07.297Z,14.33
2022-10-03T15:36:38.169Z,14.28
2022-10-03T15:39:15.752Z,14.21
2022-10-03T15:41:51.620Z,14.17
2022-10-03T15:44:25.240Z,14.17
2022-10-03T15:46:55.473Z,13.99
2022-10-03T15:49:25.663Z,13.91
2022-10-03T15:51:55.117Z,13.81
2022-10-03T15:54:25.369Z,13.66
2022-10-03T15:56:54.773Z,13.59
2022-10-03T15:59:26.824Z,13.34
2022-10-03T16:01:55.978Z,13.22
2022-10-03T16:04:26.068Z,13.01
2022-10-03T16:07:00.975Z,13.00
2022-10-03T16:09:32.133Z,12.93
2022-10-03T16:12:14.467Z,12.86
2022-10-03T16:14:47.047Z,12.85
2022-10-03T16:17:17.689Z,12.72
2022-10-03T16:19:52.582Z,12.52
2022-10-03T16:22:24.520Z,12.47
2022-10-03T16:25:02.615Z,12.30
2022-10-03T16:27:33.233Z,12.19
2022-10-03T16:30:16.477Z,11.62
2022-10-03T16:32:50.123Z,11.27
2022-10-03T16:35:32.464Z,11.27
2022-10-03T16:38:01.950Z,11.08
2022-10-03T16:40:29.532Z,10.76
2022-10-03T16:42:58.482Z,10.43
2022-10-03T16:45:31.219Z,10.32
2022-10-03T16:48:02.266Z,10.22
2022-10-03T16:50:29.689Z,9.70
2022-10-03T16:52:58.998Z,9.23
2022-10-03T16:55:31.581Z,9.18
2022-10-03T16:58:04.857Z,9.07
2022-10-03T17:00:44.859Z,9.12
2022-10-03T17:03:19.964Z,9.01
2022-10-03T17:05:49.437Z,9.10
2022-10-03T17:08:40.595Z,9.00
2022-10-03T17:11:08.348Z,8.77
2022-10-03T17:13:43.102Z,8.84
2022-10-03T17:16:19.243Z,8.79
2022-10-03T17:19:01.242Z,8.80
2022-10-03T17:21:32.863Z,8.78
2022-10-03T17:24:06.939Z,8.55
2022-10-03T17:26:35.130Z,8.82
2022-10-03T17:29:10.613Z,8.61
2022-10-03T17:31:46.256Z,8.43
2022-10-03T17:34:18.087Z,8.43
2022-10-03T17:37:08.033Z,8.50
2022-10-03T17:39:43.006Z,8.54
2022-10-03T17:42:26.334Z,8.40
2022-10-03T17:44:59.353Z,8.10
2022-10-03T17:47:35.658Z,8.10
2022-10-03T17:50:10.418Z,8.07
2022-10-03T17:52:41.131Z,8.20
2022-10-03T17:55:16.806Z,8.18
2022-10-03T17:57:48.514Z,8.15
2022-10-03T18:00:21.343Z,7.89
2022-10-03T18:03:05.837Z,7.79
2022-10-03T18:05:39.681Z,7.73
2022-10-03T18:08:13.810Z,7.61
2022-10-03T18:10:46.949Z,7.69
2022-10-03T18:13:20.701Z,7.68
2022-10-03T18:16:14.914Z,7.77
2022-10-03T18:19:16.134Z,7.82
2022-10-03T18:22:12.942Z,7.72
2022-10-03T18:24:50.460Z,7.68
2022-10-03T18:27:52.663Z,7.65
2022-10-03T18:30:23.671Z,7.72
2022-10-03T18:32:53.032Z,7.95
2022-10-03T18:35:26.363Z,7.92
2022-10-03T18:38:05.182Z,7.91
2022-10-03T18:40:34.672Z,7.62
2022-10-03T18:43:04.211Z,7.72
2022-10-03T18:45:36.221Z,7.54
2022-10-03T18:48:10.086Z,7.63
2022-10-03T18:50:53.704Z,7.69
2022-10-03T18:53:26.598Z,7.71
2022-10-03T18:55:58.624Z,7.70
2022-10-03T18:58:29.312Z,7.73
2022-10-03T19:01:07.183Z,7.56
2022-10-03T19:03:38.517Z,7.54
2022-10-03T19:06:19.475Z,7.24
2022-10-03T19:08:51.542Z,7.09
2022-10-03T19:11:23.396Z,7.10
2022-10-03T19:13:58.737Z,6.93
2022-10-03T19:16:54.575Z,6.85
2022-10-03T19:19:28.650Z,6.89
2022-10-03T19:22:02.596Z,7.05
2022-10-03T19:24:53.542Z,6.94
2022-10-03T19:27:20.703Z,6.99
2022-10-03T19:29:50.725Z,6.96
2022-10-03T19:32:23.221Z,6.93
2022-10-03T19:34:51.779Z,6.82
2022-10-03T19:37:45.269Z,6.68
2022-10-03T19:40:15.163Z,6.64
2022-10-03T19:42:47.448Z,6.58
2022-10-03T19:45:16.120Z,6.58
2022-10-03T19:47:51.585Z,6.77
2022-10-03T19:50:21.492Z,6.60
2022-10-03T19:52:54.596Z,6.53
2022-10-03T19:55:23.821Z,6.61
2022-10-03T19:57:54.953Z,6.63
2022-10-03T20:00:28.995Z,6.63
2022-10-03T20:03:05.191Z,6.66
2022-10-03T20:05:40.021Z,6.51
2022-10-03T20:08:21.959Z,6.49
2022-10-03T20:11:01.551Z,6.53
2022-10-03T20:13:29.012Z,6.46
2022-10-03T20:15:57.575Z,6.28
2022-10-03T20:18:27.229Z,6.24
2022-10-03T20:20:56.398Z,6.33
2022-10-03T20:23:27.594Z,6.39
2022-10-03T20:26:00.014Z,6.29
2022-10-03T20:28:41.175Z,6.17
2022-10-03T20:31:08.555Z,6.16
2022-10-03T20:33:36.533Z,6.08
2022-10-03T20:36:06.417Z,6.14
2022-10-03T20:38:53.542Z,6.12
2022-10-03T20:41:30.509Z,6.08
2022-10-03T20:44:08.251Z,6.14
2022-10-03T20:46:37.979Z,6.14
2022-10-03T20:49:27.797Z,6.14
2022-10-03T20:52:00.363Z,6.10
2022-10-03T20:54:35.206Z,6.09
2022-10-03T20:57:05.963Z,5.99
2022-10-03T20:59:44.796Z,5.95
2022-10-03T21:02:25.963Z,6.00
2022-10-03T21:04:59.151Z,5.94
2022-10-03T21:07:36.478Z,5.86
2022-10-03T21:10:17.391Z,5.79
2022-10-03T21:12:47.886Z,5.83
2022-10-03T21:15:25.864Z,5.85
2022-10-03T21:17:56.524Z,5.75
2022-10-03T21:20:31.575Z,5.90
2022-10-03T21:23:04.134Z,5.81
2022-10-03T21:25:37.268Z,5.82
2022-10-03T21:28:04.594Z,5.73
2022-10-03T21:30:54.876Z,5.75
2022-10-03T21:33:29.641Z,5.69
2022-10-03T21:36:06.790Z,5.64
2022-10-03T21:38:34.777Z,5.59
2022-10-03T21:41:25.761Z,5.68
2022-10-03T21:43:55.128Z,5.51
2022-10-03T21:46:34.246Z,5.50
2022-10-03T21:49:26.470Z,5.52
2022-10-03T21:52:24.291Z,5.47
2022-10-03T21:55:01.828Z,5.43
2022-10-03T21:57:43.066Z,5.53
2022-10-03T22:00:13.789Z,5.54
2022-10-03T22:02:54.050Z,5.61
2022-10-03T22:05:36.131Z,5.45
2022-10-03T22:08:13.756Z,5.46
2022-10-03T22:10:52.722Z,5.46
2022-10-03T22:13:25.857Z,5.22
2022-10-03T22:16:00.648Z,5.21
2022-10-03T22:18:34.093Z,5.24
2022-10-03T22:21:15.056Z,5.25
2022-10-03T22:23:50.401Z,5.08
2022-10-03T22:26:22.612Z,5.13
2022-10-03T22:29:01.198Z,5.11
2022-10-03T22:31:35.661Z,5.03
2022-10-03T22:34:20.474Z,4.95
2022-10-03T22:36:48.652Z,4.94
2022-10-03T22:39:18.439Z,4.98
2022-10-03T22:41:48.819Z,4.88
2022-10-03T22:44:20.080Z,4.80
2022-10-03T22:46:52.304Z,4.84
2022-10-03T22:49:22.826Z,4.79
2022-10-03T22:51:53.101Z,4.91
2022-10-03T22:54:20.405Z,4.85
2022-10-03T22:56:52.182Z,4.90
2022-10-03T22:59:25.061Z,4.96
2022-10-03T23:01:55.049Z,4.96
2022-10-03T23:04:30.687Z,4.71
2022-10-03T23:07:39.802Z,4.64
2022-10-03T23:10:26.024Z,4.66
2022-10-03T23:13:00.549Z,4.67
2022-10-03T23:15:32.446Z,4.71
2022-10-03T23:18:33.902Z,4.83
2022-10-03T23:21:05.366Z,4.73
2022-10-03T23:23:40.027Z,4.70
2022-10-03T23:26:36.994Z,4.68
2022-10-03T23:29:06.776Z,4.67
2022-10-03T23:32:01.570Z,4.67
2022-10-03T23:34:48.175Z,4.60
2022-10-03T23:37:35.913Z,4.48
2022-10-03T23:40:33.493Z,4.36
2022-10-03T23:43:04.836Z,4.31
2022-10-03T23:45:34.386Z,4.34
2022-10-03T23:48:06.521Z,4.30
2022-10-03T23:50:39.601Z,4.43
2022-10-03T23:53:15.001Z,4.34
2022-10-03T23:55:44.659Z,4.33
2022-10-03T23:58:25.797Z,4.40
